Benson, Utah
Current Conditions -  °F | °C
As of 3:51 PM on Friday 19 Dec 2014 (Local Time) from KLGU Reporting Station
Overcast Overcast  
Wind Chill: 38°   Ceiling: 7000
Heat Index: 42°   Visibility: 10mi
Dew Point: 29°   Wind: 6mph
Humidity: 60%   Direction: 340°NNW
Pressure: 30.1"   Gusts: NA
Location:  41.8466°N, 111.898°W
Report Text: KLGU 192251Z AUTO 34005KT 10SM OVC070 06/M02 A3010 RMK AO2 SLP200 T00561017
Loading
Personal Weather Stations






























Interactive Weather Map New forecast layout! Learn more

10-Day Weather Forecast

Advertisements
Track Severe Weather on mobile